Allison, TX (79003)

9:26 PM CDT on August 27, 2016 (GMT -0500)
Hemphill County | | Change Station

Elev 2395 ft 35.89 °N, 100.40 °W | Updated 11 minutes ago

Thunderstorm
Thunderstorm
72 °F
Feels Like 72 °F
N
4
Wind Variable Wind from ESE

Today
High -- | Low -- °F
--% Chance of Precip.
Yesterday
High -- | Low -- °F
Precip. -- in
Pressure 30.06 in
Visibility 10.0 miles
Clouds Scattered Clouds 12000 ft
Dew Point 62 °F
Humidity 71%
Rainfall 0.00 in
Snow Depth Not available.
7:09 AM 8:13 PM
Waning Crescent, 19% visible
METAR KHHF 280215Z AUTO 11003KT 10SM TS SCT120 22/17 A3006 RMK AO2 LTG DSNT NE AND E T02230168
Pressure 30.06 in
Visibility 10.0 miles
Clouds Scattered Clouds 12000 ft
Dew Point 62 °F
Humidity 71%
Rainfall 0.00 in
Snow Depth Not available.
7:09 AM 8:13 PM
Waning Crescent, 19% visible
METAR KHHF 280215Z AUTO 11003KT 10SM TS SCT120 22/17 A3006 RMK AO2 LTG DSNT NE AND E T02230168

10-Day Weather Forecast

Almanac

Astronomy

Aug. 27, 2016 Rise Set
Actual Time
Civil Twilight
Nautical Twilight
Astronomical Twilight
Moon
Length of Visible Light
Length of Day
Tomorrow will be .
, % of the Moon is Illuminated

Today's Extremes

State Highs State Lows

Community

WunderPhotos

Upload Photos

1,935,496 photos uploaded!

WunderBlog® & News

Nearby

Air Quality

  Air Quality AQ Index Pollutant
Not available.

Snow Depth

Station Depth Elevation

Earthquake Activity

City Distance Mag. Time & Date
Minimum magnitude displayed is 2.5.

Coastal Water Temperatures

Place Temperature

Stations

Nearby Weather Stations

Station Location Temp. Windchill Dew Point Humidity Wind Precip. Elev Updated Type
                   

Watches & Warnings

There are currently no watches in effect.